Time;durP1;ratioP1;P1;durP2;ratioP2;P2;SDS_P1;SDS_P2;PMS_P1;PMS_P2;Temp;Humidity;BMP_temperature;BMP_pressure;BME280_temperature;BME280_humidity;BME280_pressure;Samples;Min_cycle;Max_cycle;Signal;HPM_P1;HPM_P2
2023/04/23 00:01:26;;;;;;;4.50;3.55;;;;;;;14.66;84.98;99431.81;10221907;28;20061;-54
2023/04/23 00:06:29;;;;;;;4.38;3.25;;;;;;;14.45;85.91;99422.44;10259259;28;20057;-55
2023/04/23 00:11:32;;;;;;;3.60;3.30;;;;;;;14.24;86.51;99390.00;10265037;28;20043;-55
2023/04/23 00:16:38;;;;;;;3.92;3.53;;;;;;;14.49;86.39;99421.09;10261151;28;22668;-55
2023/04/23 00:21:39;;;;;;;4.27;3.87;;;;;;;14.45;86.19;99425.13;10219676;28;20050;-55
2023/04/23 00:26:41;;;;;;;4.15;3.42;;;;;;;14.42;87.02;99425.47;10258365;28;20058;-55
2023/04/23 00:31:42;;;;;;;4.63;4.07;;;;;;;14.38;87.44;99418.78;10257638;28;20054;-55
2023/04/23 00:36:46;;;;;;;;;;;;;;;14.43;87.35;99421.78;10259234;28;20251;-53
2023/04/23 00:41:48;;;;;;;5.53;3.78;;;;;;;14.37;87.81;99421.63;10264489;28;19936;-54
2023/04/23 00:46:51;;;;;;;4.10;3.63;;;;;;;14.33;88.27;99431.81;10260381;28;20145;-55
2023/04/23 00:51:52;;;;;;;4.10;3.70;;;;;;;14.33;88.06;99426.47;10255430;28;20076;-55
2023/04/23 00:56:56;;;;;;;4.55;3.55;;;;;;;14.25;89.43;99429.16;10255073;28;20141;-55
2023/04/23 01:01:59;;;;;;;3.90;3.60;;;;;;;14.27;89.11;99417.25;10260373;28;20140;-55
2023/04/23 01:07:01;;;;;;;4.60;4.20;;;;;;;14.20;89.77;99431.50;10261467;28;20077;-55
2023/04/23 01:12:05;;;;;;;3.72;3.42;;;;;;;14.02;92.02;99421.81;10256729;28;20042;-55
2023/04/23 01:17:07;;;;;;;4.83;4.33;;;;;;;14.05;91.36;99421.47;10254354;28;20046;-55
2023/04/23 01:22:11;;;;;;;4.70;4.30;;;;;;;14.12;90.91;99425.13;10253351;28;20774;-55
2023/04/23 01:27:13;;;;;;;5.50;4.85;;;;;;;13.99;91.61;99427.50;10255943;28;20656;-55
2023/04/23 01:32:15;;;;;;;5.70;4.65;;;;;;;14.00;91.93;99434.50;10253931;28;20081;-60
2023/04/23 01:37:17;;;;;;;5.50;5.00;;;;;;;13.97;92.08;99432.16;10255107;28;20054;-55
2023/04/23 01:42:19;;;;;;;6.28;5.65;;;;;;;13.99;91.71;99435.50;10264917;28;20059;-57
2023/04/23 01:47:21;;;;;;;5.75;5.25;;;;;;;14.02;92.47;99434.31;10249041;28;20631;-55
2023/04/23 01:52:22;;;;;;;6.45;5.85;;;;;;;14.03;92.90;99436.84;10259151;28;20079;-55
2023/04/23 01:57:25;;;;;;;6.80;6.20;;;;;;;13.97;93.13;99442.84;10258377;28;20050;-55
2023/04/23 02:02:27;;;;;;;7.03;6.30;;;;;;;13.94;92.82;99454.72;10263767;28;20058;-55
2023/04/23 02:07:30;;;;;;;6.82;6.13;;;;;;;13.92;93.71;99442.53;10256205;28;20153;-54
2023/04/23 02:12:31;;;;;;;7.03;6.35;;;;;;;13.78;93.36;99450.19;10260382;28;20709;-55
2023/04/23 02:17:34;;;;;;;6.63;6.03;;;;;;;13.72;94.64;99460.69;10260580;28;20090;-55
2023/04/23 02:22:40;;;;;;;6.95;6.35;;;;;;;13.77;94.81;99461.88;10262051;28;20392;-55
2023/04/23 02:27:42;;;;;;;7.43;6.82;;;;;;;13.77;95.41;99456.53;10215438;28;20047;-54
2023/04/23 02:32:43;;;;;;;8.18;7.47;;;;;;;13.74;94.49;99469.41;10220920;28;20047;-54
2023/04/23 02:37:45;;;;;;;7.85;7.18;;;;;;;13.61;95.54;99453.81;10220653;28;20475;-56
2023/04/23 02:42:48;;;;;;;7.35;6.65;;;;;;;13.54;95.50;99432.25;10212211;28;20070;-53
2023/04/23 02:47:50;;;;;;;8.57;7.57;;;;;;;13.65;95.66;99460.50;10217723;28;20051;-53
2023/04/23 02:52:52;;;;;;;7.75;7.05;;;;;;;13.65;95.51;99459.69;10215825;28;20047;-54
2023/04/23 02:57:53;;;;;;;7.53;6.82;;;;;;;13.64;94.33;99455.31;10210483;28;20811;-54
2023/04/23 03:02:55;;;;;;;7.28;6.45;;;;;;;13.74;94.18;99464.06;10217202;28;20394;-54
2023/04/23 03:07:57;;;;;;;9.30;8.15;;;;;;;13.54;95.17;99448.28;10261034;28;20043;-54
2023/04/23 03:12:59;;;;;;;7.63;6.80;;;;;;;13.73;94.04;99471.22;10251085;28;20205;-54
2023/04/23 03:18:03;;;;;;;6.85;6.25;;;;;;;13.69;94.05;99477.91;10252622;28;20471;-55
2023/04/23 03:23:08;;;;;;;5.38;4.95;;;;;;;13.63;94.60;99465.19;10250826;28;20042;-54
2023/04/23 03:28:09;;;;;;;6.65;6.05;;;;;;;13.64;94.58;99464.19;10260668;28;20050;-54
2023/04/23 03:33:11;;;;;;;6.35;5.15;;;;;;;13.71;94.74;99475.91;10254312;28;20156;-55
2023/04/23 03:38:12;;;;;;;6.47;5.97;;;;;;;13.69;93.93;99480.59;10259674;28;20058;-54
2023/04/23 03:43:16;;;;;;;6.82;6.22;;;;;;;13.64;94.04;99471.38;10256376;28;20615;-55
2023/04/23 03:48:17;;;;;;;6.18;5.68;;;;;;;13.58;94.07;99462.97;10255547;28;20055;-55
2023/04/23 03:53:18;;;;;;;6.97;6.38;;;;;;;13.64;93.88;99480.22;10254639;28;20050;-54
2023/04/23 03:58:20;;;;;;;7.10;6.50;;;;;;;13.54;94.06;99474.16;10257906;28;20085;-58
2023/04/23 04:03:22;;;;;;;7.35;6.25;;;;;;;13.51;93.93;99471.81;10255835;28;20102;-54
2023/04/23 04:08:25;;;;;;;7.00;6.40;;;;;;;13.47;94.88;99476.66;10263454;28;20054;-56
2023/04/23 04:13:26;;;;;;;6.30;5.65;;;;;;;13.42;94.17;99465.59;10256202;28;20597;-55
2023/04/23 04:18:28;;;;;;;6.70;6.15;;;;;;;13.46;94.04;99476.81;10254027;28;20130;-55
2023/04/23 04:23:32;;;;;;;6.10;5.60;;;;;;;13.43;93.91;99473.44;10262242;28;20263;-55
2023/04/23 04:28:36;;;;;;;6.82;6.05;;;;;;;13.44;93.78;99469.78;10257605;28;20042;-56
2023/04/23 04:33:38;;;;;;;6.00;5.53;;;;;;;13.46;93.13;99471.47;10257469;28;20050;-55
2023/04/23 04:38:40;;;;;;;6.43;5.80;;;;;;;13.46;93.09;99471.47;10232142;28;20144;-56
2023/04/23 04:43:44;;;;;;;6.30;5.70;;;;;;;13.36;92.65;99464.44;10226659;28;20078;-54
2023/04/23 04:48:46;;;;;;;6.28;5.78;;;;;;;13.44;91.96;99474.31;10249515;28;20050;-54
2023/04/23 04:53:47;;;;;;;6.50;6.00;;;;;;;13.43;92.28;99473.44;10216707;28;20054;-54
2023/04/23 04:58:50;;;;;;;6.00;5.45;;;;;;;13.38;92.35;99483.81;10239388;28;20070;-55
2023/04/23 05:03:52;;;;;;;6.40;5.82;;;;;;;13.34;93.21;99485.13;10231694;28;20086;-55
2023/04/23 05:08:54;;;;;;;6.78;6.07;;;;;;;13.32;93.38;99479.06;10218860;28;20220;-56
2023/04/23 05:13:56;;;;;;;7.20;6.53;;;;;;;13.27;93.27;99484.06;10229599;28;20694;-58
2023/04/23 05:18:57;;;;;;;6.03;5.43;;;;;;;13.28;93.92;99485.72;10227464;28;20138;-55
2023/04/23 05:24:00;;;;;;;6.07;5.55;;;;;;;13.35;93.15;99488.66;10220406;28;20162;-58
2023/04/23 05:29:01;;;;;;;9.18;5.88;;;;;;;13.40;93.08;99487.16;10219786;28;20055;-55
2023/04/23 05:34:03;;;;;;;5.65;5.03;;;;;;;13.41;92.69;99496.84;10221911;28;20152;-54
2023/04/23 05:39:04;;;;;;;6.35;5.78;;;;;;;13.34;92.78;99490.47;10220699;28;20150;-55
2023/04/23 05:44:06;;;;;;;5.85;5.35;;;;;;;13.41;92.61;99494.19;10223119;28;20085;-55
2023/04/23 05:49:07;;;;;;;5.05;4.65;;;;;;;13.39;93.02;99506.88;10232182;28;23529;-55
2023/04/23 05:54:10;;;;;;;5.07;4.70;;;;;;;13.35;93.06;99502.84;10256798;28;20635;-55
2023/04/23 05:59:11;;;;;;;4.38;4.05;;;;;;;13.49;93.42;99503.22;10256495;28;20113;-55
2023/04/23 06:04:13;;;;;;;6.00;5.13;;;;;;;13.61;92.05;99507.28;10262671;28;20170;-56
2023/04/23 06:09:16;;;;;;;4.57;4.18;;;;;;;13.62;92.34;99511.66;10240056;28;20834;-57
2023/04/23 06:14:19;;;;;;;5.20;4.70;;;;;;;13.65;92.12;99514.00;10245316;28;20533;-55
2023/04/23 06:19:23;;;;;;;5.65;5.15;;;;;;;13.72;91.38;99487.44;10253946;28;20096;-56
2023/04/23 06:24:25;;;;;;;5.30;4.78;;;;;;;13.91;90.22;99505.88;10252934;28;20069;-58
2023/04/23 06:29:27;;;;;;;5.40;4.88;;;;;;;14.05;88.89;99511.59;10250757;28;20050;-55
2023/04/23 06:34:29;;;;;;;5.45;4.53;;;;;;;14.01;88.59;99492.38;10250168;28;20153;-54
2023/04/23 06:39:30;;;;;;;5.50;4.90;;;;;;;14.22;86.87;99496.41;10247130;28;20061;-55
2023/04/23 06:44:33;;;;;;;5.70;4.80;;;;;;;14.46;86.60;99492.91;10255319;28;20138;-55
2023/04/23 06:49:34;;;;;;;4.65;4.22;;;;;;;14.66;84.87;99501.47;10243907;28;20541;-56
2023/04/23 06:54:36;;;;;;;5.28;4.80;;;;;;;14.47;82.20;99503.47;10245720;28;20050;-54
2023/04/23 06:59:37;;;;;;;4.80;4.30;;;;;;;14.53;83.25;99514.50;10246525;28;20077;-54
2023/04/23 07:04:39;;;;;;;4.13;3.78;;;;;;;14.61;82.42;99498.47;10249815;28;20057;-55
2023/04/23 07:09:42;;;;;;;4.78;4.38;;;;;;;14.58;80.61;99496.09;10241198;28;20057;-55
2023/04/23 07:14:45;;;;;;;4.88;4.22;;;;;;;14.60;78.00;99480.69;10260337;28;20752;-55
2023/04/23 07:19:46;;;;;;;4.90;4.40;;;;;;;14.76;77.49;99491.41;10252680;28;20592;-54
2023/04/23 07:24:48;;;;;;;4.97;4.45;;;;;;;14.88;76.57;99477.66;10248880;28;20050;-54
2023/04/23 07:29:50;;;;;;;4.22;3.92;;;;;;;14.90;76.85;99472.97;10248202;28;20074;-53
2023/04/23 07:34:51;;;;;;;4.18;3.78;;;;;;;15.09;76.67;99461.88;10222767;28;20742;-57
2023/04/23 07:39:53;;;;;;;4.93;4.53;;;;;;;15.14;74.06;99496.19;10226140;28;20066;-55
2023/04/23 07:44:54;;;;;;;5.72;4.28;;;;;;;15.31;73.87;99478.22;10223029;28;20055;-56
2023/04/23 07:49:56;;;;;;;4.30;3.90;;;;;;;15.43;72.65;99476.81;10220940;28;20059;-55
2023/04/23 07:54:58;;;;;;;4.43;4.03;;;;;;;15.74;73.07;99487.56;10219304;28;20138;-55
2023/04/23 07:59:59;;;;;;;5.05;4.57;;;;;;;15.70;71.45;99472.00;10218489;28;20782;-55
2023/04/23 08:05:01;;;;;;;4.40;4.00;;;;;;;15.83;71.98;99477.66;10232879;28;21059;-56
2023/04/23 08:10:04;;;;;;;4.22;3.83;;;;;;;16.28;69.40;99479.75;10220692;28;20395;-53
2023/04/23 08:15:06;;;;;;;4.55;4.15;;;;;;;16.31;68.18;99457.91;10227780;28;20050;-51
2023/04/23 08:20:09;;;;;;;5.55;5.05;;;;;;;16.58;68.20;99465.38;10241385;28;20058;-52
2023/04/23 08:25:12;;;;;;;4.35;3.95;;;;;;;17.03;68.04;99464.66;10230570;28;20050;-52
2023/04/23 08:30:13;;;;;;;5.10;4.63;;;;;;;17.33;67.07;99459.25;10223213;28;20108;-51
2023/04/23 08:35:15;;;;;;;5.60;5.10;;;;;;;17.46;63.74;99457.56;10227886;28;21439;-52
2023/04/23 08:40:16;;;;;;;6.70;6.20;;;;;;;17.23;62.97;99446.91;10215614;28;20197;-51
2023/04/23 08:45:18;;;;;;;6.55;5.95;;;;;;;17.26;62.41;99451.09;10240798;28;20138;-52
2023/04/23 08:50:20;;;;;;;5.72;5.25;;;;;;;17.34;62.08;99447.47;10227314;28;20230;-51
2023/04/23 08:55:22;;;;;;;4.55;4.18;;;;;;;17.36;61.63;99450.81;10225498;28;20054;-51
2023/04/23 09:00:24;;;;;;;3.75;3.15;;;;;;;17.38;61.08;99433.44;10227846;28;20055;-53
2023/04/23 09:05:27;;;;;;;4.70;3.25;;;;;;;17.62;58.48;99445.75;10229342;28;20186;-53
2023/04/23 09:10:28;;;;;;;3.45;2.67;;;;;;;17.59;59.47;99445.28;10220407;28;20062;-51
2023/04/23 09:15:30;;;;;;;3.30;2.53;;;;;;;17.41;59.03;99435.75;10230362;28;20074;-52
2023/04/23 09:20:31;;;;;;;2.55;2.28;;;;;;;17.92;59.86;99417.94;10226062;28;20066;-52
2023/04/23 09:25:33;;;;;;;2.80;2.47;;;;;;;18.54;56.33;99419.13;10224913;28;20053;-51
2023/04/23 09:30:42;;;;;;;2.58;2.38;;;;;;;18.34;56.22;99418.94;10229611;28;20583;-58
2023/04/23 09:35:46;;;;;;;3.20;2.58;;;;;;;18.24;55.59;99411.22;10261958;28;20043;-59
2023/04/23 09:40:49;;;;;;;6.32;5.82;;;;;;;18.54;57.53;99397.56;10264986;28;20051;-58
2023/04/23 09:45:52;;;;;;;4.75;3.75;;;;;;;19.03;53.81;99382.31;10265720;28;20058;-59
2023/04/23 09:50:54;;;;;;;3.75;3.00;;;;;;;19.40;53.78;99388.31;10267778;28;20057;-58
2023/04/23 09:55:56;;;;;;;2.30;1.50;;;;;;;19.75;50.49;99385.47;10263384;28;20061;-59
2023/04/23 10:01:07;;;;;;;3.13;1.70;;;;;;;19.05;50.60;99375.72;10258090;28;20110;-57
2023/04/23 10:06:14;;;;;;;2.35;2.15;;;;;;;18.48;53.21;99374.06;10273760;28;20050;-58
2023/04/23 10:11:35;;;;;;;2.65;2.00;;;;;;;18.50;52.97;99382.81;10266125;28;20066;-58
2023/04/23 10:16:38;;;;;;;2.92;2.47;;;;;;;19.11;51.58;99376.78;10256418;28;20050;-57
2023/04/23 10:21:57;;;;;;;2.13;1.85;;;;;;;19.29;52.29;99368.13;10272660;28;20053;-57
2023/04/23 10:27:21;;;;;;;2.75;2.20;;;;;;;19.23;51.88;99369.75;10257227;28;20149;-58
2023/04/23 10:32:26;;;;;;;1.92;1.70;;;;;;;19.55;49.92;99363.84;10255374;28;20050;-58
2023/04/23 10:37:28;;;;;;;2.55;2.13;;;;;;;19.28;52.18;99361.06;10261112;28;20058;-58
2023/04/23 10:42:30;;;;;;;1.67;1.38;;;;;;;19.63;51.05;99360.94;10257785;28;20058;-57
2023/04/23 10:47:32;;;;;;;2.25;1.90;;;;;;;19.60;49.66;99356.78;10259151;28;20045;-58
2023/04/23 10:52:34;;;;;;;3.60;1.65;;;;;;;19.99;46.79;99354.38;10258378;28;20066;-57
2023/04/23 10:57:57;;;;;;;1.88;1.60;;;;;;;20.52;46.17;99350.00;10258555;28;20188;-56
2023/04/23 11:03:01;;;;;;;2.88;1.77;;;;;;;19.85;48.09;99352.72;10261108;28;20165;-58
2023/04/23 11:08:06;;;;;;;1.70;1.60;;;;;;;19.43;49.44;99342.84;10260113;28;20062;-57
2023/04/23 11:13:21;;;;;;;3.47;1.80;;;;;;;19.54;49.31;99329.78;10251934;28;20057;-58
2023/04/23 11:18:22;;;;;;;1.88;1.77;;;;;;;21.12;42.63;99302.00;10256272;28;20069;-58
2023/04/23 11:23:31;;;;;;;3.17;1.65;;;;;;;21.79;42.30;99303.47;10256543;28;20057;-58
2023/04/23 11:28:35;;;;;;;1.95;1.30;;;;;;;20.90;45.35;99306.06;10253170;28;20047;-58
2023/04/23 11:33:37;;;;;;;3.22;1.77;;;;;;;20.09;46.57;99295.38;10246866;28;20279;-57
2023/04/23 11:38:40;;;;;;;2.30;1.83;;;;;;;19.85;46.85;99288.75;10278322;28;20060;-57
2023/04/23 11:43:42;;;;;;;2.22;1.70;;;;;;;19.61;46.86;99282.06;10259522;28;20057;-59
2023/04/23 11:48:43;;;;;;;1.60;1.48;;;;;;;19.96;46.38;99268.38;10264093;28;20054;-56
2023/04/23 11:53:47;;;;;;;1.50;1.40;;;;;;;20.36;45.16;99267.50;10262788;28;21022;-58
2023/04/23 11:58:58;;;;;;;2.30;1.33;;;;;;;21.01;42.03;99264.78;10276670;28;20049;-58
2023/04/23 12:04:08;;;;;;;1.83;1.40;;;;;;;20.51;42.89;99264.53;10267496;28;21104;-58
2023/04/23 12:09:11;;;;;;;2.90;1.40;;;;;;;20.13;43.06;99266.06;10237329;28;20057;-57
2023/04/23 12:14:14;;;;;;;3.10;1.65;;;;;;;20.11;43.45;99244.66;10241540;28;20716;-57
2023/04/23 12:19:19;;;;;;;2.80;2.25;;;;;;;20.10;46.83;99251.13;10220753;28;20047;-56
2023/04/23 12:24:22;;;;;;;2.08;1.65;;;;;;;20.04;48.49;99218.72;10234674;28;21223;-55
2023/04/23 12:29:25;;;;;;;2.45;1.67;;;;;;;20.29;48.29;99229.66;10221691;28;20046;-57
2023/04/23 12:34:26;;;;;;;3.10;2.30;;;;;;;20.29;48.13;99235.91;10230194;28;20055;-57
2023/04/23 12:39:31;;;;;;;2.83;1.75;;;;;;;20.21;48.53;99236.13;10228065;28;20373;-58
2023/04/23 12:44:36;;;;;;;2.22;1.85;;;;;;;20.73;47.81;99214.59;10224121;28;20623;-57
2023/04/23 12:49:39;;;;;;;3.40;2.10;;;;;;;20.99;47.71;99207.38;10230759;28;20054;-51
2023/04/23 12:54:43;;;;;;;;;;;;;;;20.69;44.29;99197.13;10226251;28;20129;-50
2023/04/23 12:59:45;;;;;;;1.92;1.50;;;;;;;20.44;48.54;99184.28;10224189;28;20032;-49
2023/04/23 13:04:46;;;;;;;2.25;1.55;;;;;;;20.65;43.08;99166.13;10216252;28;20510;-51
2023/04/23 13:09:47;;;;;;;2.05;1.10;;;;;;;20.91;43.30;99161.63;10223177;28;20578;-50
2023/04/23 13:14:49;;;;;;;2.28;0.90;;;;;;;21.22;40.16;99143.75;10213121;28;20051;-51
2023/04/23 13:19:52;;;;;;;1.20;1.08;;;;;;;21.26;39.22;99134.13;10220637;28;20054;-50
2023/04/23 13:24:55;;;;;;;2.25;1.08;;;;;;;21.20;39.71;99138.56;10221916;28;20059;-50
2023/04/23 13:29:57;;;;;;;2.97;0.98;;;;;;;21.24;39.99;99125.41;10212573;28;20139;-50
2023/04/23 13:35:01;;;;;;;1.88;0.90;;;;;;;21.54;39.23;99110.19;10220491;28;20777;-50
2023/04/23 13:40:04;;;;;;;1.30;0.93;;;;;;;21.42;37.12;99103.78;10220304;28;20055;-55
2023/04/23 13:45:06;;;;;;;3.10;0.95;;;;;;;21.53;38.07;99067.91;10217726;28;20855;-50
2023/04/23 13:50:09;;;;;;;1.95;0.65;;;;;;;21.86;37.25;99088.38;10232000;28;20047;-51
2023/04/23 13:55:10;;;;;;;1.40;0.75;;;;;;;21.99;35.24;99087.41;10219225;28;20081;-51
2023/04/23 14:00:13;;;;;;;0.90;0.60;;;;;;;21.68;34.42;99069.44;10218659;28;20188;-50
2023/04/23 14:05:14;;;;;;;0.90;0.80;;;;;;;21.36;35.64;99066.78;10209109;28;20054;-58
2023/04/23 14:10:16;;;;;;;1.17;0.63;;;;;;;21.32;37.31;99060.19;10211375;28;20134;-51
2023/04/23 14:15:18;;;;;;;0.80;0.60;;;;;;;21.23;37.30;99051.53;10216293;28;20054;-51
2023/04/23 14:20:20;;;;;;;1.20;0.90;;;;;;;21.35;36.30;99059.75;10213572;28;20046;-51
2023/04/23 14:25:33;;;;;;;1.38;0.57;;;;;;;21.31;35.76;99036.88;10250554;28;20148;-51
2023/04/23 14:30:34;;;;;;;1.43;0.87;;;;;;;21.28;33.62;99038.13;10258361;28;20082;-52
2023/04/23 14:35:36;;;;;;;1.83;0.80;;;;;;;21.04;34.48;98999.25;10257626;28;20064;-51
2023/04/23 14:40:44;;;;;;;1.60;0.55;;;;;;;21.16;34.25;98996.63;10259216;28;20077;-51
2023/04/23 14:45:45;;;;;;;0.77;0.52;;;;;;;20.74;34.08;98989.09;10256976;28;20049;-51
2023/04/23 14:50:47;;;;;;;1.50;0.65;;;;;;;20.82;33.59;98979.88;10256913;28;20062;-51
2023/04/23 14:55:48;;;;;;;1.60;1.35;;;;;;;20.75;34.54;98979.94;10257523;28;20054;-51
2023/04/23 15:00:50;;;;;;;1.27;0.50;;;;;;;20.70;34.58;98971.66;10259458;28;20046;-51
2023/04/23 15:05:51;;;;;;;2.17;0.85;;;;;;;20.43;34.41;98971.84;10262630;28;20576;-61
2023/04/23 15:10:53;;;;;;;0.95;0.70;;;;;;;20.40;36.03;98961.47;10255308;28;20074;-62
2023/04/23 15:15:58;;;;;;;1.35;1.15;;;;;;;20.28;35.75;98957.81;10267073;28;20181;-59
2023/04/23 15:21:03;;;;;;;1.60;0.77;;;;;;;20.23;35.67;98944.13;10258694;28;20477;-64
2023/04/23 15:26:05;;;;;;;4.50;1.83;;;;;;;20.18;34.88;98950.19;10259533;28;20121;-58
2023/04/23 15:31:06;;;;;;;1.45;0.70;;;;;;;20.01;35.39;98941.78;10244330;28;20054;-59
2023/04/23 15:36:09;;;;;;;0.93;0.70;;;;;;;20.03;37.05;98938.88;10260828;28;20151;-58
2023/04/23 15:41:11;;;;;;;0.55;0.55;;;;;;;19.84;36.06;98900.13;10255155;28;20482;-64
2023/04/23 15:46:13;;;;;;;2.10;0.68;;;;;;;19.53;36.44;98863.94;10260147;28;20079;-59
2023/04/23 15:51:15;;;;;;;1.33;0.88;;;;;;;19.89;37.07;98919.19;10255436;28;20095;-61
2023/04/23 15:56:16;;;;;;;1.08;0.68;;;;;;;19.81;36.25;98912.19;10266498;28;20049;-59
2023/04/23 16:01:18;;;;;;;1.52;0.70;;;;;;;19.68;37.22;98904.97;10278944;28;20133;-60
2023/04/23 16:06:20;;;;;;;1.58;0.80;;;;;;;19.64;37.30;98901.03;10259818;28;20060;-59
2023/04/23 16:11:24;;;;;;;2.47;1.13;;;;;;;19.59;37.42;98904.38;10264873;28;20054;-59
2023/04/23 16:16:25;;;;;;;0.82;0.63;;;;;;;19.55;37.85;98905.03;10253448;28;20073;-57
2023/04/23 16:21:27;;;;;;;2.40;0.80;;;;;;;19.40;38.29;98908.00;10256013;28;20054;-59
2023/04/23 16:26:29;;;;;;;1.35;0.50;;;;;;;19.31;38.00;98904.72;10263549;28;20606;-59
2023/04/23 16:31:30;;;;;;;1.88;0.75;;;;;;;19.24;38.34;98890.41;10263113;28;20098;-58
2023/04/23 16:36:32;;;;;;;0.88;0.70;;;;;;;19.25;39.29;98910.97;10265174;28;20110;-58
2023/04/23 16:41:34;;;;;;;2.85;0.90;;;;;;;18.92;45.83;98946.94;10264663;28;20135;-59
2023/04/23 16:46:35;;;;;;;1.67;0.70;;;;;;;17.91;55.05;98977.47;10261122;28;20188;-58
2023/04/23 16:51:37;;;;;;;2.83;1.20;;;;;;;17.81;56.67;98989.41;10259872;28;20086;-59
2023/04/23 16:56:41;;;;;;;3.05;1.05;;;;;;;17.59;57.31;99004.84;10266105;28;20074;-59
2023/04/23 17:01:42;;;;;;;2.10;0.90;;;;;;;17.36;59.22;98989.00;10261109;28;20062;-58
2023/04/23 17:06:44;;;;;;;0.80;0.50;;;;;;;17.29;60.91;98975.53;10269460;28;20061;-59
2023/04/23 17:11:46;;;;;;;2.00;1.10;;;;;;;17.26;63.89;98983.16;10263468;28;20050;-59
2023/04/23 17:16:50;;;;;;;2.25;1.20;;;;;;;17.11;62.62;98975.19;10266553;28;20334;-59
2023/04/23 17:21:51;;;;;;;1.77;0.88;;;;;;;17.05;65.48;98959.88;10261306;28;20059;-58
2023/04/23 17:26:53;;;;;;;1.20;1.10;;;;;;;17.12;64.92;98950.00;10265515;28;20095;-57
2023/04/23 17:31:55;;;;;;;1.08;0.88;;;;;;;17.05;63.35;98930.28;10264789;28;20101;-59
2023/04/23 17:36:56;;;;;;;3.55;1.25;;;;;;;17.01;62.84;98920.97;10265503;28;20057;-59
2023/04/23 17:41:58;;;;;;;1.60;1.23;;;;;;;17.01;64.10;98939.78;10259533;28;20145;-59
2023/04/23 17:47:00;;;;;;;4.43;2.55;;;;;;;16.99;65.22;98949.91;10261261;28;20098;-60
2023/04/23 17:52:02;;;;;;;2.55;1.67;;;;;;;16.94;65.03;98947.81;10258705;28;20528;-59
2023/04/23 17:57:05;;;;;;;1.27;1.17;;;;;;;16.82;64.40;98950.19;10256230;28;20406;-58
2023/04/23 18:02:07;;;;;;;1.93;1.67;;;;;;;16.77;65.92;98949.94;10262916;28;20169;-58
2023/04/23 18:07:09;;;;;;;1.80;1.27;;;;;;;16.73;65.93;98940.59;10258577;28;20447;-59
2023/04/23 18:12:11;;;;;;;1.83;1.17;;;;;;;16.50;66.39;98935.44;10261149;28;20843;-59
2023/04/23 18:17:16;;;;;;;1.25;1.13;;;;;;;16.49;66.88;98958.81;10259368;28;20140;-58
2023/04/23 18:22:18;;;;;;;1.80;1.17;;;;;;;16.38;68.12;98949.41;10255888;28;20787;-59
2023/04/23 18:27:19;;;;;;;1.23;0.93;;;;;;;16.18;69.70;98943.88;10279115;28;20499;-59
2023/04/23 18:32:21;;;;;;;2.78;1.10;;;;;;;16.06;69.27;98946.22;10263201;28;20054;-58
2023/04/23 18:37:51;;;;;;;1.90;1.10;;;;;;;16.00;70.16;98949.69;10252111;28;20762;-58
2023/04/23 18:42:53;;;;;;;2.58;1.15;;;;;;;15.99;69.34;98950.69;10259000;28;20789;-58
2023/04/23 18:48:01;;;;;;;3.22;1.65;;;;;;;15.86;69.22;98951.38;10252657;28;20062;-60
2023/04/23 18:53:04;;;;;;;2.47;1.30;;;;;;;15.68;69.03;98932.97;10262795;28;20054;-60
2023/04/23 18:58:06;;;;;;;2.35;1.25;;;;;;;15.74;69.47;98942.13;10261476;28;20058;-60
2023/04/23 19:03:08;;;;;;;1.85;0.98;;;;;;;15.67;68.42;98950.13;10261627;28;20419;-59
2023/04/23 19:08:29;;;;;;;1.05;0.75;;;;;;;15.60;69.03;98954.56;10255215;28;20124;-60
2023/04/23 19:13:31;;;;;;;1.50;0.85;;;;;;;15.53;68.80;98962.50;10269009;28;20078;-58
2023/04/23 19:18:32;;;;;;;2.40;0.80;;;;;;;15.52;69.33;98965.38;10259149;28;20050;-59
2023/04/23 19:23:34;;;;;;;4.80;1.50;;;;;;;15.54;69.02;98953.44;10250469;28;20063;-59
2023/04/23 19:28:38;;;;;;;3.20;1.10;;;;;;;15.35;68.72;98919.19;10259639;28;20054;-59
2023/04/23 19:33:44;;;;;;;2.60;1.67;;;;;;;15.44;68.96;98960.94;10249405;28;20551;-59
2023/04/23 19:38:45;;;;;;;1.42;0.90;;;;;;;15.40;69.09;98973.06;10257684;28;20050;-59
2023/04/23 19:43:47;;;;;;;1.75;1.00;;;;;;;15.45;69.20;98970.66;10248650;28;20062;-59
2023/04/23 19:48:48;;;;;;;1.85;1.20;;;;;;;15.34;70.08;98963.94;10251725;28;20136;-58
2023/04/23 19:53:50;;;;;;;2.25;1.52;;;;;;;15.36;70.66;98979.84;10258574;28;20616;-58
2023/04/23 19:58:51;;;;;;;1.83;1.38;;;;;;;15.23;70.29;98960.88;10265237;28;20057;-58
2023/04/23 20:03:53;;;;;;;1.38;1.20;;;;;;;15.16;70.80;98972.34;10257741;28;20057;-60
2023/04/23 20:14:16;;;;;;;1.83;1.10;;;;;;;15.01;72.09;98969.66;10255409;28;20046;-58
2023/04/23 20:19:18;;;;;;;2.40;1.17;;;;;;;14.95;71.67;98959.69;10257487;28;20148;-60
2023/04/23 20:24:22;;;;;;;1.90;0.90;;;;;;;14.87;72.38;98975.00;10257001;28;20080;-59
2023/04/23 20:29:23;;;;;;;1.35;0.90;;;;;;;14.82;73.44;98970.19;10250411;28;20706;-59
2023/04/23 20:34:25;;;;;;;2.88;1.45;;;;;;;14.85;72.65;98967.16;10273554;28;20111;-60
2023/04/23 20:39:27;;;;;;;2.00;1.17;;;;;;;14.81;72.78;98963.97;10261092;28;20057;-58
2023/04/23 20:44:30;;;;;;;1.77;1.25;;;;;;;14.72;73.30;98946.31;10254801;28;20183;-60
2023/04/23 20:49:32;;;;;;;2.03;1.48;;;;;;;14.77;73.47;98956.50;10252462;28;20126;-59
2023/04/23 20:54:35;;;;;;;2.25;1.50;;;;;;;14.70;74.33;98964.44;10253826;28;20197;-59
2023/04/23 20:59:36;;;;;;;7.57;1.63;;;;;;;14.71;74.02;98973.28;10253057;28;20557;-60
2023/04/23 21:04:38;;;;;;;2.80;1.38;;;;;;;14.60;74.74;98979.91;10254532;28;20058;-59
2023/04/23 21:09:40;;;;;;;3.13;1.85;;;;;;;14.60;74.13;98977.22;10249692;28;20057;-59
2023/04/23 21:14:42;;;;;;;1.25;0.85;;;;;;;14.48;73.99;98980.31;10261857;28;20046;-58
2023/04/23 21:19:44;;;;;;;1.17;1.05;;;;;;;14.50;73.54;98983.66;10277519;28;20053;-58
2023/04/23 21:24:46;;;;;;;1.50;1.00;;;;;;;14.42;73.53;98975.69;10256798;28;20053;-59
2023/04/23 21:29:49;;;;;;;2.05;1.20;;;;;;;14.40;73.56;98988.41;10269810;28;20134;-58
2023/04/23 21:34:51;;;;;;;1.47;1.20;;;;;;;14.40;72.82;98993.78;10258861;28;20755;-59
2023/04/23 21:39:52;;;;;;;2.28;1.30;;;;;;;14.46;72.29;98987.69;10258127;28;20077;-59
2023/04/23 21:44:54;;;;;;;2.60;0.80;;;;;;;14.44;71.62;98984.38;10267073;28;20051;-59
2023/04/23 21:49:56;;;;;;;2.65;0.93;;;;;;;14.39;71.35;98986.75;10230351;28;20045;-59
2023/04/23 21:54:57;;;;;;;1.42;0.70;;;;;;;14.40;71.34;98998.31;10269177;28;20051;-58
2023/04/23 21:59:59;;;;;;;1.08;0.70;;;;;;;14.27;71.05;98999.72;10253984;28;20126;-60
2023/04/23 22:05:00;;;;;;;0.98;0.70;;;;;;;14.28;70.22;98995.22;10258287;28;20118;-60
2023/04/23 22:10:02;;;;;;;2.08;0.70;;;;;;;14.29;70.32;98986.16;10258213;28;20075;-59
2023/04/23 22:15:05;;;;;;;1.85;0.90;;;;;;;14.28;70.23;98973.81;10261383;28;20065;-60
2023/04/23 22:20:09;;;;;;;1.02;0.88;;;;;;;14.25;69.83;98990.22;10263262;28;20085;-60
2023/04/23 22:25:11;;;;;;;1.00;0.63;;;;;;;14.24;69.94;98994.72;10255576;28;20096;-58
2023/04/23 22:30:14;;;;;;;1.42;0.60;;;;;;;14.27;69.39;98993.53;10267523;28;20313;-59
2023/04/23 22:35:16;;;;;;;2.25;0.52;;;;;;;14.20;69.60;98976.50;10260836;28;20062;-59
2023/04/23 22:40:17;;;;;;;3.28;1.00;;;;;;;14.10;69.22;98972.25;10268235;28;20062;-61
2023/04/23 22:45:19;;;;;;;1.77;0.57;;;;;;;14.05;69.07;98966.59;10255447;28;20562;-59
2023/04/23 22:50:22;;;;;;;1.52;0.55;;;;;;;13.98;69.23;98968.31;10259652;28;20065;-59
2023/04/23 22:55:23;;;;;;;1.38;0.73;;;;;;;14.11;68.91;98973.91;10257827;28;20054;-59
2023/04/23 23:00:25;;;;;;;1.15;0.60;;;;;;;13.97;68.88;98971.97;10259635;28;20166;-59
2023/04/23 23:05:26;;;;;;;1.70;0.52;;;;;;;13.95;68.63;98984.72;10265078;28;20137;-59
2023/04/23 23:10:28;;;;;;;1.92;0.35;;;;;;;13.87;69.13;98974.06;10263691;28;20078;-57
2023/04/23 23:15:30;;;;;;;1.40;0.35;;;;;;;13.88;68.98;98967.69;10256692;28;20215;-58
2023/04/23 23:20:31;;;;;;;0.95;0.43;;;;;;;13.76;69.24;98970.75;10260928;28;20706;-58
2023/04/23 23:25:37;;;;;;;2.22;0.35;;;;;;;13.67;69.28;98953.09;10256066;28;20550;-58
2023/04/23 23:30:38;;;;;;;1.13;0.70;;;;;;;13.69;69.44;98963.63;10258118;28;20128;-58
2023/04/23 23:35:39;;;;;;;0.82;0.40;;;;;;;13.75;69.77;98963.75;10251865;28;20555;-60